sensor_id;sensor_type;location;lat;lon;timestamp;P1;durP1;ratioP1;P2;durP2;ratioP2
16579;SDS011;8402;51.466;6.806;2023-06-22T00:00:49;7.03;;;5.43;;
16579;SDS011;8402;51.466;6.806;2023-06-22T00:03:19;8.75;;;6.18;;
16579;SDS011;8402;51.466;6.806;2023-06-22T00:05:51;12.63;;;6.32;;
16579;SDS011;8402;51.466;6.806;2023-06-22T00:08:23;8.73;;;6.47;;
16579;SDS011;8402;51.466;6.806;2023-06-22T00:10:52;6.47;;;4.90;;
16579;SDS011;8402;51.466;6.806;2023-06-22T00:13:25;9.50;;;6.70;;
16579;SDS011;8402;51.466;6.806;2023-06-22T00:15:55;8.35;;;5.85;;
16579;SDS011;8402;51.466;6.806;2023-06-22T00:18:25;12.35;;;6.90;;
16579;SDS011;8402;51.466;6.806;2023-06-22T00:20:57;9.10;;;5.25;;
16579;SDS011;8402;51.466;6.806;2023-06-22T00:23:29;7.10;;;4.90;;
16579;SDS011;8402;51.466;6.806;2023-06-22T00:26:03;8.00;;;4.55;;
16579;SDS011;8402;51.466;6.806;2023-06-22T00:28:36;7.57;;;4.80;;
16579;SDS011;8402;51.466;6.806;2023-06-22T00:31:06;7.18;;;5.03;;
16579;SDS011;8402;51.466;6.806;2023-06-22T00:33:36;6.80;;;4.20;;
16579;SDS011;8402;51.466;6.806;2023-06-22T00:36:06;8.35;;;5.07;;
16579;SDS011;8402;51.466;6.806;2023-06-22T00:38:39;7.38;;;4.75;;
16579;SDS011;8402;51.466;6.806;2023-06-22T00:41:09;12.70;;;4.85;;
16579;SDS011;8402;51.466;6.806;2023-06-22T00:43:42;9.38;;;5.68;;
16579;SDS011;8402;51.466;6.806;2023-06-22T00:46:12;7.30;;;5.72;;
16579;SDS011;8402;51.466;6.806;2023-06-22T00:48:42;8.05;;;5.00;;
16579;SDS011;8402;51.466;6.806;2023-06-22T00:51:12;16.15;;;5.55;;
16579;SDS011;8402;51.466;6.806;2023-06-22T00:53:42;10.15;;;5.78;;
16579;SDS011;8402;51.466;6.806;2023-06-22T00:56:13;9.43;;;5.65;;
16579;SDS011;8402;51.466;6.806;2023-06-22T00:58:48;8.52;;;5.80;;
16579;SDS011;8402;51.466;6.806;2023-06-22T01:01:19;11.57;;;6.32;;
16579;SDS011;8402;51.466;6.806;2023-06-22T01:03:51;9.57;;;4.88;;
16579;SDS011;8402;51.466;6.806;2023-06-22T01:06:26;9.88;;;5.93;;
16579;SDS011;8402;51.466;6.806;2023-06-22T01:09:06;8.43;;;6.00;;
16579;SDS011;8402;51.466;6.806;2023-06-22T01:11:44;10.05;;;6.05;;
16579;SDS011;8402;51.466;6.806;2023-06-22T01:14:22;7.45;;;5.55;;
16579;SDS011;8402;51.466;6.806;2023-06-22T01:16:56;9.25;;;5.68;;
16579;SDS011;8402;51.466;6.806;2023-06-22T01:19:35;13.00;;;6.45;;
16579;SDS011;8402;51.466;6.806;2023-06-22T01:22:13;10.00;;;5.68;;
16579;SDS011;8402;51.466;6.806;2023-06-22T01:24:50;9.73;;;5.70;;
16579;SDS011;8402;51.466;6.806;2023-06-22T01:27:35;9.43;;;5.90;;
16579;SDS011;8402;51.466;6.806;2023-06-22T01:30:15;10.73;;;5.82;;
16579;SDS011;8402;51.466;6.806;2023-06-22T01:32:46;10.35;;;5.70;;
16579;SDS011;8402;51.466;6.806;2023-06-22T01:35:17;10.10;;;5.47;;
16579;SDS011;8402;51.466;6.806;2023-06-22T01:37:48;8.57;;;5.50;;
16579;SDS011;8402;51.466;6.806;2023-06-22T01:40:19;10.98;;;6.22;;
16579;SDS011;8402;51.466;6.806;2023-06-22T01:42:51;12.73;;;4.88;;
16579;SDS011;8402;51.466;6.806;2023-06-22T01:45:24;9.13;;;5.45;;
16579;SDS011;8402;51.466;6.806;2023-06-22T01:47:54;11.93;;;4.82;;
16579;SDS011;8402;51.466;6.806;2023-06-22T01:50:25;9.18;;;5.63;;
16579;SDS011;8402;51.466;6.806;2023-06-22T01:52:56;7.57;;;5.38;;
16579;SDS011;8402;51.466;6.806;2023-06-22T01:55:26;11.23;;;5.90;;
16579;SDS011;8402;51.466;6.806;2023-06-22T01:57:56;8.90;;;5.65;;
16579;SDS011;8402;51.466;6.806;2023-06-22T02:00:28;9.73;;;6.05;;
16579;SDS011;8402;51.466;6.806;2023-06-22T02:03:02;10.13;;;6.30;;
16579;SDS011;8402;51.466;6.806;2023-06-22T02:05:38;8.45;;;6.38;;
16579;SDS011;8402;51.466;6.806;2023-06-22T02:08:11;8.40;;;5.47;;
16579;SDS011;8402;51.466;6.806;2023-06-22T02:10:48;9.18;;;6.05;;
16579;SDS011;8402;51.466;6.806;2023-06-22T02:13:18;8.75;;;5.65;;
16579;SDS011;8402;51.466;6.806;2023-06-22T02:15:51;9.38;;;6.93;;
16579;SDS011;8402;51.466;6.806;2023-06-22T02:18:22;11.35;;;5.78;;
16579;SDS011;8402;51.466;6.806;2023-06-22T02:20:52;9.85;;;6.68;;
16579;SDS011;8402;51.466;6.806;2023-06-22T02:23:22;6.60;;;5.60;;
16579;SDS011;8402;51.466;6.806;2023-06-22T02:25:52;9.20;;;5.97;;
16579;SDS011;8402;51.466;6.806;2023-06-22T02:28:22;14.88;;;6.70;;
16579;SDS011;8402;51.466;6.806;2023-06-22T02:30:55;11.30;;;7.03;;
16579;SDS011;8402;51.466;6.806;2023-06-22T02:33:27;10.38;;;6.63;;
16579;SDS011;8402;51.466;6.806;2023-06-22T02:35:57;13.25;;;6.85;;
16579;SDS011;8402;51.466;6.806;2023-06-22T02:38:31;13.38;;;6.50;;
16579;SDS011;8402;51.466;6.806;2023-06-22T02:41:03;11.98;;;7.80;;
16579;SDS011;8402;51.466;6.806;2023-06-22T02:43:33;10.73;;;7.20;;
16579;SDS011;8402;51.466;6.806;2023-06-22T02:46:05;13.65;;;6.57;;
16579;SDS011;8402;51.466;6.806;2023-06-22T02:48:35;12.05;;;5.78;;
16579;SDS011;8402;51.466;6.806;2023-06-22T02:51:05;12.90;;;6.85;;
16579;SDS011;8402;51.466;6.806;2023-06-22T02:53:35;12.10;;;6.30;;
16579;SDS011;8402;51.466;6.806;2023-06-22T02:56:05;12.95;;;7.55;;
16579;SDS011;8402;51.466;6.806;2023-06-22T02:58:35;9.05;;;5.97;;
16579;SDS011;8402;51.466;6.806;2023-06-22T03:01:08;10.63;;;5.90;;
16579;SDS011;8402;51.466;6.806;2023-06-22T03:03:39;14.00;;;5.90;;
16579;SDS011;8402;51.466;6.806;2023-06-22T03:06:09;15.32;;;6.53;;
16579;SDS011;8402;51.466;6.806;2023-06-22T03:08:40;12.77;;;6.00;;
16579;SDS011;8402;51.466;6.806;2023-06-22T03:11:11;16.33;;;7.00;;
16579;SDS011;8402;51.466;6.806;2023-06-22T03:13:41;10.35;;;7.65;;
16579;SDS011;8402;51.466;6.806;2023-06-22T03:16:14;12.15;;;6.90;;
16579;SDS011;8402;51.466;6.806;2023-06-22T03:18:44;17.55;;;7.13;;
16579;SDS011;8402;51.466;6.806;2023-06-22T03:21:14;15.05;;;8.50;;
16579;SDS011;8402;51.466;6.806;2023-06-22T03:23:44;15.15;;;9.40;;
16579;SDS011;8402;51.466;6.806;2023-06-22T03:26:15;15.63;;;9.38;;
16579;SDS011;8402;51.466;6.806;2023-06-22T03:28:46;15.95;;;10.63;;
16579;SDS011;8402;51.466;6.806;2023-06-22T03:31:19;11.43;;;7.40;;
16579;SDS011;8402;51.466;6.806;2023-06-22T03:33:49;21.80;;;8.15;;
16579;SDS011;8402;51.466;6.806;2023-06-22T03:36:19;14.93;;;7.53;;
16579;SDS011;8402;51.466;6.806;2023-06-22T03:38:49;12.13;;;7.22;;
16579;SDS011;8402;51.466;6.806;2023-06-22T03:41:20;12.18;;;6.50;;
16579;SDS011;8402;51.466;6.806;2023-06-22T03:43:50;11.10;;;6.80;;
16579;SDS011;8402;51.466;6.806;2023-06-22T03:46:22;15.60;;;7.63;;
16579;SDS011;8402;51.466;6.806;2023-06-22T03:48:52;12.73;;;9.32;;
16579;SDS011;8402;51.466;6.806;2023-06-22T03:51:22;13.82;;;7.95;;
16579;SDS011;8402;51.466;6.806;2023-06-22T03:53:52;14.30;;;9.63;;
16579;SDS011;8402;51.466;6.806;2023-06-22T03:56:22;16.45;;;9.55;;
16579;SDS011;8402;51.466;6.806;2023-06-22T03:58:52;17.45;;;8.60;;
16579;SDS011;8402;51.466;6.806;2023-06-22T04:01:25;15.02;;;10.40;;
16579;SDS011;8402;51.466;6.806;2023-06-22T04:03:55;12.93;;;8.30;;
16579;SDS011;8402;51.466;6.806;2023-06-22T04:06:25;15.55;;;9.57;;
16579;SDS011;8402;51.466;6.806;2023-06-22T04:08:55;12.82;;;9.07;;
16579;SDS011;8402;51.466;6.806;2023-06-22T04:11:26;16.25;;;11.48;;
16579;SDS011;8402;51.466;6.806;2023-06-22T04:13:55;18.52;;;9.00;;
16579;SDS011;8402;51.466;6.806;2023-06-22T04:16:28;14.52;;;10.73;;
16579;SDS011;8402;51.466;6.806;2023-06-22T04:18:58;15.70;;;10.82;;
16579;SDS011;8402;51.466;6.806;2023-06-22T04:21:28;16.90;;;11.45;;
16579;SDS011;8402;51.466;6.806;2023-06-22T04:23:58;15.88;;;12.05;;
16579;SDS011;8402;51.466;6.806;2023-06-22T04:26:28;15.55;;;9.45;;
16579;SDS011;8402;51.466;6.806;2023-06-22T04:29:03;13.43;;;9.93;;
16579;SDS011;8402;51.466;6.806;2023-06-22T04:31:37;20.35;;;11.98;;
16579;SDS011;8402;51.466;6.806;2023-06-22T04:34:10;26.45;;;12.63;;
16579;SDS011;8402;51.466;6.806;2023-06-22T04:36:42;29.08;;;11.88;;
16579;SDS011;8402;51.466;6.806;2023-06-22T04:39:12;26.25;;;12.35;;
16579;SDS011;8402;51.466;6.806;2023-06-22T04:41:42;30.38;;;14.13;;
16579;SDS011;8402;51.466;6.806;2023-06-22T04:44:12;24.80;;;12.80;;
16579;SDS011;8402;51.466;6.806;2023-06-22T04:46:54;20.30;;;11.02;;
16579;SDS011;8402;51.466;6.806;2023-06-22T04:49:27;24.77;;;12.10;;
16579;SDS011;8402;51.466;6.806;2023-06-22T04:52:00;24.85;;;12.65;;
16579;SDS011;8402;51.466;6.806;2023-06-22T04:54:30;24.80;;;11.60;;
16579;SDS011;8402;51.466;6.806;2023-06-22T04:57:01;21.15;;;11.98;;
16579;SDS011;8402;51.466;6.806;2023-06-22T04:59:37;24.95;;;11.60;;
16579;SDS011;8402;51.466;6.806;2023-06-22T05:02:11;20.20;;;11.80;;
16579;SDS011;8402;51.466;6.806;2023-06-22T05:04:41;22.85;;;10.95;;
16579;SDS011;8402;51.466;6.806;2023-06-22T05:07:11;17.80;;;10.63;;
16579;SDS011;8402;51.466;6.806;2023-06-22T05:09:44;16.08;;;10.27;;
16579;SDS011;8402;51.466;6.806;2023-06-22T05:12:14;17.02;;;10.98;;
16579;SDS011;8402;51.466;6.806;2023-06-22T05:14:44;18.00;;;11.50;;
16579;SDS011;8402;51.466;6.806;2023-06-22T05:17:16;21.45;;;11.95;;
16579;SDS011;8402;51.466;6.806;2023-06-22T05:19:46;26.92;;;11.25;;
16579;SDS011;8402;51.466;6.806;2023-06-22T05:22:17;19.45;;;11.18;;
16579;SDS011;8402;51.466;6.806;2023-06-22T05:24:47;21.40;;;11.52;;
16579;SDS011;8402;51.466;6.806;2023-06-22T05:27:18;27.48;;;12.57;;
16579;SDS011;8402;51.466;6.806;2023-06-22T05:29:48;18.20;;;11.15;;
16579;SDS011;8402;51.466;6.806;2023-06-22T05:32:20;17.83;;;11.43;;
16579;SDS011;8402;51.466;6.806;2023-06-22T05:34:53;19.23;;;12.23;;
16579;SDS011;8402;51.466;6.806;2023-06-22T05:37:23;16.65;;;11.93;;
16579;SDS011;8402;51.466;6.806;2023-06-22T05:39:53;17.70;;;9.95;;
16579;SDS011;8402;51.466;6.806;2023-06-22T05:42:23;22.88;;;12.88;;
16579;SDS011;8402;51.466;6.806;2023-06-22T05:44:54;16.05;;;10.05;;
16579;SDS011;8402;51.466;6.806;2023-06-22T05:47:28;22.35;;;11.02;;
16579;SDS011;8402;51.466;6.806;2023-06-22T05:49:58;18.52;;;13.10;;
16579;SDS011;8402;51.466;6.806;2023-06-22T05:52:33;15.93;;;12.13;;
16579;SDS011;8402;51.466;6.806;2023-06-22T05:55:03;17.98;;;12.93;;
16579;SDS011;8402;51.466;6.806;2023-06-22T05:57:33;20.92;;;13.85;;
16579;SDS011;8402;51.466;6.806;2023-06-22T06:00:03;14.43;;;10.38;;
16579;SDS011;8402;51.466;6.806;2023-06-22T06:02:40;19.27;;;13.30;;
16579;SDS011;8402;51.466;6.806;2023-06-22T06:05:10;15.13;;;11.73;;
16579;SDS011;8402;51.466;6.806;2023-06-22T06:07:41;19.55;;;13.02;;
16579;SDS011;8402;51.466;6.806;2023-06-22T06:10:11;14.43;;;11.85;;
16579;SDS011;8402;51.466;6.806;2023-06-22T06:12:42;19.13;;;12.50;;
16579;SDS011;8402;51.466;6.806;2023-06-22T06:15:11;18.55;;;13.80;;
16579;SDS011;8402;51.466;6.806;2023-06-22T06:17:48;17.58;;;12.98;;
16579;SDS011;8402;51.466;6.806;2023-06-22T06:20:19;18.27;;;13.27;;
16579;SDS011;8402;51.466;6.806;2023-06-22T06:22:50;21.02;;;15.52;;
16579;SDS011;8402;51.466;6.806;2023-06-22T06:25:20;19.00;;;13.73;;
16579;SDS011;8402;51.466;6.806;2023-06-22T06:27:51;21.67;;;14.82;;
16579;SDS011;8402;51.466;6.806;2023-06-22T06:30:21;21.52;;;15.10;;
16579;SDS011;8402;51.466;6.806;2023-06-22T06:32:55;27.75;;;17.52;;
16579;SDS011;8402;51.466;6.806;2023-06-22T06:35:25;27.17;;;17.65;;
16579;SDS011;8402;51.466;6.806;2023-06-22T06:37:55;24.40;;;15.50;;
16579;SDS011;8402;51.466;6.806;2023-06-22T06:40:25;24.08;;;16.38;;
16579;SDS011;8402;51.466;6.806;2023-06-22T06:42:56;26.90;;;16.13;;
16579;SDS011;8402;51.466;6.806;2023-06-22T06:45:26;31.05;;;15.55;;
16579;SDS011;8402;51.466;6.806;2023-06-22T06:48:02;28.75;;;17.15;;
16579;SDS011;8402;51.466;6.806;2023-06-22T06:50:32;21.85;;;15.95;;
16579;SDS011;8402;51.466;6.806;2023-06-22T06:53:02;26.92;;;16.80;;
16579;SDS011;8402;51.466;6.806;2023-06-22T06:55:32;25.00;;;17.23;;
16579;SDS011;8402;51.466;6.806;2023-06-22T06:58:02;29.25;;;16.13;;
16579;SDS011;8402;51.466;6.806;2023-06-22T07:00:34;25.17;;;17.75;;
16579;SDS011;8402;51.466;6.806;2023-06-22T07:03:09;26.77;;;16.80;;
16579;SDS011;8402;51.466;6.806;2023-06-22T07:05:39;23.52;;;16.35;;
16579;SDS011;8402;51.466;6.806;2023-06-22T07:08:09;24.27;;;16.00;;
16579;SDS011;8402;51.466;6.806;2023-06-22T07:10:39;23.20;;;16.85;;
16579;SDS011;8402;51.466;6.806;2023-06-22T07:13:09;22.20;;;15.98;;
16579;SDS011;8402;51.466;6.806;2023-06-22T07:15:39;28.35;;;17.73;;
16579;SDS011;8402;51.466;6.806;2023-06-22T07:18:11;24.83;;;17.63;;
16579;SDS011;8402;51.466;6.806;2023-06-22T07:20:41;23.33;;;17.98;;
16579;SDS011;8402;51.466;6.806;2023-06-22T07:23:11;22.38;;;16.63;;
16579;SDS011;8402;51.466;6.806;2023-06-22T07:25:41;26.67;;;16.33;;
16579;SDS011;8402;51.466;6.806;2023-06-22T07:28:11;24.42;;;16.10;;
16579;SDS011;8402;51.466;6.806;2023-06-22T07:30:41;23.35;;;16.33;;
16579;SDS011;8402;51.466;6.806;2023-06-22T07:33:17;23.95;;;16.77;;
16579;SDS011;8402;51.466;6.806;2023-06-22T07:35:47;22.02;;;16.02;;
16579;SDS011;8402;51.466;6.806;2023-06-22T07:38:18;22.20;;;16.02;;
16579;SDS011;8402;51.466;6.806;2023-06-22T07:40:48;25.15;;;16.77;;
16579;SDS011;8402;51.466;6.806;2023-06-22T07:43:21;22.80;;;16.08;;
16579;SDS011;8402;51.466;6.806;2023-06-22T07:45:51;23.20;;;16.60;;
16579;SDS011;8402;51.466;6.806;2023-06-22T07:48:24;25.40;;;16.33;;
16579;SDS011;8402;51.466;6.806;2023-06-22T07:50:56;26.50;;;17.45;;
16579;SDS011;8402;51.466;6.806;2023-06-22T07:53:26;27.83;;;18.98;;
16579;SDS011;8402;51.466;6.806;2023-06-22T07:55:56;23.63;;;17.17;;
16579;SDS011;8402;51.466;6.806;2023-06-22T07:58:26;19.33;;;15.32;;
16579;SDS011;8402;51.466;6.806;2023-06-22T08:00:56;22.65;;;16.48;;
16579;SDS011;8402;51.466;6.806;2023-06-22T08:03:28;21.25;;;16.08;;
16579;SDS011;8402;51.466;6.806;2023-06-22T08:05:58;20.80;;;16.85;;
16579;SDS011;8402;51.466;6.806;2023-06-22T08:08:28;23.30;;;16.33;;
16579;SDS011;8402;51.466;6.806;2023-06-22T08:10:58;22.90;;;17.13;;
16579;SDS011;8402;51.466;6.806;2023-06-22T08:13:28;25.60;;;19.02;;
16579;SDS011;8402;51.466;6.806;2023-06-22T08:15:58;29.27;;;19.30;;
16579;SDS011;8402;51.466;6.806;2023-06-22T08:18:31;28.60;;;18.75;;
16579;SDS011;8402;51.466;6.806;2023-06-22T08:21:01;28.83;;;20.52;;
16579;SDS011;8402;51.466;6.806;2023-06-22T08:23:31;26.08;;;19.33;;
16579;SDS011;8402;51.466;6.806;2023-06-22T08:26:02;24.85;;;17.85;;
16579;SDS011;8402;51.466;6.806;2023-06-22T08:28:32;24.23;;;18.27;;
16579;SDS011;8402;51.466;6.806;2023-06-22T08:31:02;33.47;;;21.58;;
16579;SDS011;8402;51.466;6.806;2023-06-22T08:33:35;27.77;;;19.15;;
16579;SDS011;8402;51.466;6.806;2023-06-22T08:36:15;29.42;;;20.80;;
16579;SDS011;8402;51.466;6.806;2023-06-22T08:38:45;24.58;;;18.73;;
16579;SDS011;8402;51.466;6.806;2023-06-22T08:41:17;28.77;;;21.42;;
16579;SDS011;8402;51.466;6.806;2023-06-22T08:43:47;27.10;;;19.33;;
16579;SDS011;8402;51.466;6.806;2023-06-22T08:46:17;27.73;;;19.70;;
16579;SDS011;8402;51.466;6.806;2023-06-22T08:48:59;22.42;;;18.02;;
16579;SDS011;8402;51.466;6.806;2023-06-22T08:51:30;27.45;;;17.58;;
16579;SDS011;8402;51.466;6.806;2023-06-22T08:54:00;27.85;;;17.90;;
16579;SDS011;8402;51.466;6.806;2023-06-22T08:56:30;26.73;;;18.00;;
16579;SDS011;8402;51.466;6.806;2023-06-22T08:59:00;26.35;;;18.38;;
16579;SDS011;8402;51.466;6.806;2023-06-22T09:01:30;33.95;;;18.42;;
16579;SDS011;8402;51.466;6.806;2023-06-22T09:04:03;24.85;;;17.80;;
16579;SDS011;8402;51.466;6.806;2023-06-22T09:06:36;24.55;;;19.23;;
16579;SDS011;8402;51.466;6.806;2023-06-22T09:09:12;22.90;;;17.08;;
16579;SDS011;8402;51.466;6.806;2023-06-22T09:11:42;27.30;;;18.10;;
16579;SDS011;8402;51.466;6.806;2023-06-22T09:14:12;24.38;;;18.88;;
16579;SDS011;8402;51.466;6.806;2023-06-22T09:16:42;27.70;;;17.60;;
16579;SDS011;8402;51.466;6.806;2023-06-22T09:19:15;25.23;;;15.75;;
16579;SDS011;8402;51.466;6.806;2023-06-22T09:21:45;23.15;;;16.00;;
16579;SDS011;8402;51.466;6.806;2023-06-22T09:24:15;24.05;;;16.65;;
16579;SDS011;8402;51.466;6.806;2023-06-22T09:26:45;26.20;;;18.52;;
16579;SDS011;8402;51.466;6.806;2023-06-22T09:29:15;29.10;;;19.38;;
16579;SDS011;8402;51.466;6.806;2023-06-22T09:31:46;27.05;;;17.85;;
16579;SDS011;8402;51.466;6.806;2023-06-22T09:34:18;31.02;;;18.95;;
16579;SDS011;8402;51.466;6.806;2023-06-22T09:36:48;31.27;;;18.90;;
16579;SDS011;8402;51.466;6.806;2023-06-22T09:39:18;27.70;;;17.70;;
16579;SDS011;8402;51.466;6.806;2023-06-22T09:41:48;26.05;;;19.70;;
16579;SDS011;8402;51.466;6.806;2023-06-22T09:44:18;24.45;;;17.92;;
16579;SDS011;8402;51.466;6.806;2023-06-22T09:46:48;26.70;;;18.77;;
16579;SDS011;8402;51.466;6.806;2023-06-22T09:49:21;24.67;;;17.00;;
16579;SDS011;8402;51.466;6.806;2023-06-22T09:52:11;26.45;;;18.80;;
16579;SDS011;8402;51.466;6.806;2023-06-22T09:54:41;25.05;;;17.98;;
16579;SDS011;8402;51.466;6.806;2023-06-22T09:57:10;21.90;;;17.60;;
16579;SDS011;8402;51.466;6.806;2023-06-22T09:59:40;27.73;;;18.45;;
16579;SDS011;8402;51.466;6.806;2023-06-22T10:02:11;25.38;;;18.05;;
16579;SDS011;8402;51.466;6.806;2023-06-22T10:04:43;24.92;;;18.42;;
16579;SDS011;8402;51.466;6.806;2023-06-22T10:07:13;23.70;;;18.10;;
16579;SDS011;8402;51.466;6.806;2023-06-22T10:09:43;23.05;;;17.50;;
16579;SDS011;8402;51.466;6.806;2023-06-22T10:12:13;22.90;;;17.48;;
16579;SDS011;8402;51.466;6.806;2023-06-22T10:14:43;23.20;;;16.88;;
16579;SDS011;8402;51.466;6.806;2023-06-22T10:17:13;22.73;;;17.48;;
16579;SDS011;8402;51.466;6.806;2023-06-22T10:19:45;20.65;;;16.90;;
16579;SDS011;8402;51.466;6.806;2023-06-22T10:22:15;21.80;;;17.88;;
16579;SDS011;8402;51.466;6.806;2023-06-22T10:24:45;23.15;;;17.23;;
16579;SDS011;8402;51.466;6.806;2023-06-22T10:27:15;22.20;;;17.13;;
16579;SDS011;8402;51.466;6.806;2023-06-22T10:29:45;20.90;;;15.30;;
16579;SDS011;8402;51.466;6.806;2023-06-22T10:32:15;19.30;;;16.55;;
16579;SDS011;8402;51.466;6.806;2023-06-22T10:34:48;17.25;;;15.20;;
16579;SDS011;8402;51.466;6.806;2023-06-22T10:37:18;18.77;;;16.00;;
16579;SDS011;8402;51.466;6.806;2023-06-22T10:39:47;16.10;;;13.63;;
16579;SDS011;8402;51.466;6.806;2023-06-22T10:42:18;20.88;;;14.55;;
16579;SDS011;8402;51.466;6.806;2023-06-22T10:44:47;20.45;;;13.77;;
16579;SDS011;8402;51.466;6.806;2023-06-22T10:47:17;21.55;;;13.32;;
16579;SDS011;8402;51.466;6.806;2023-06-22T10:49:50;26.65;;;14.60;;
16579;SDS011;8402;51.466;6.806;2023-06-22T10:52:20;22.38;;;14.57;;
16579;SDS011;8402;51.466;6.806;2023-06-22T10:54:50;15.25;;;13.30;;
16579;SDS011;8402;51.466;6.806;2023-06-22T10:57:21;18.98;;;12.77;;
16579;SDS011;8402;51.466;6.806;2023-06-22T10:59:51;18.60;;;13.10;;
16579;SDS011;8402;51.466;6.806;2023-06-22T11:02:21;15.50;;;12.13;;
16579;SDS011;8402;51.466;6.806;2023-06-22T11:04:54;17.73;;;12.38;;
16579;SDS011;8402;51.466;6.806;2023-06-22T11:07:27;19.80;;;13.52;;
16579;SDS011;8402;51.466;6.806;2023-06-22T11:09:57;18.10;;;11.82;;
16579;SDS011;8402;51.466;6.806;2023-06-22T11:12:27;16.38;;;11.38;;
16579;SDS011;8402;51.466;6.806;2023-06-22T11:14:58;19.17;;;10.95;;
16579;SDS011;8402;51.466;6.806;2023-06-22T11:17:28;20.63;;;13.45;;
16579;SDS011;8402;51.466;6.806;2023-06-22T11:20:00;19.80;;;11.07;;
16579;SDS011;8402;51.466;6.806;2023-06-22T11:22:31;27.77;;;10.52;;
16579;SDS011;8402;51.466;6.806;2023-06-22T11:25:02;19.25;;;10.98;;
16579;SDS011;8402;51.466;6.806;2023-06-22T11:27:32;19.85;;;11.65;;
16579;SDS011;8402;51.466;6.806;2023-06-22T11:30:02;19.02;;;10.82;;
16579;SDS011;8402;51.466;6.806;2023-06-22T11:32:33;16.90;;;11.82;;
16579;SDS011;8402;51.466;6.806;2023-06-22T11:35:06;19.75;;;12.90;;
16579;SDS011;8402;51.466;6.806;2023-06-22T11:37:38;14.95;;;11.25;;
16579;SDS011;8402;51.466;6.806;2023-06-22T11:40:11;15.07;;;11.73;;
16579;SDS011;8402;51.466;6.806;2023-06-22T11:42:44;15.05;;;11.70;;
16579;SDS011;8402;51.466;6.806;2023-06-22T11:45:14;16.25;;;12.13;;
16579;SDS011;8402;51.466;6.806;2023-06-22T11:47:44;18.35;;;13.68;;
16579;SDS011;8402;51.466;6.806;2023-06-22T11:50:17;16.15;;;14.25;;
16579;SDS011;8402;51.466;6.806;2023-06-22T11:52:47;18.08;;;14.32;;
16579;SDS011;8402;51.466;6.806;2023-06-22T11:55:17;22.17;;;15.07;;
16579;SDS011;8402;51.466;6.806;2023-06-22T11:57:54;20.17;;;16.60;;
16579;SDS011;8402;51.466;6.806;2023-06-22T12:00:29;25.08;;;17.30;;
16579;SDS011;8402;51.466;6.806;2023-06-22T12:03:15;27.38;;;18.08;;
16579;SDS011;8402;51.466;6.806;2023-06-22T12:05:49;25.98;;;19.20;;
16579;SDS011;8402;51.466;6.806;2023-06-22T12:08:19;23.85;;;18.73;;
16579;SDS011;8402;51.466;6.806;2023-06-22T12:10:49;27.75;;;19.40;;
16579;SDS011;8402;51.466;6.806;2023-06-22T12:13:20;26.20;;;19.35;;
16579;SDS011;8402;51.466;6.806;2023-06-22T12:15:51;31.30;;;19.77;;
16579;SDS011;8402;51.466;6.806;2023-06-22T12:18:21;28.67;;;18.83;;
16579;SDS011;8402;51.466;6.806;2023-06-22T12:20:53;25.27;;;19.70;;
16579;SDS011;8402;51.466;6.806;2023-06-22T12:23:23;25.40;;;18.27;;
16579;SDS011;8402;51.466;6.806;2023-06-22T12:25:54;24.40;;;19.30;;
16579;SDS011;8402;51.466;6.806;2023-06-22T12:28:24;30.73;;;19.63;;
16579;SDS011;8402;51.466;6.806;2023-06-22T12:30:54;26.17;;;19.90;;
16579;SDS011;8402;51.466;6.806;2023-06-22T12:33:24;26.38;;;20.30;;
16579;SDS011;8402;51.466;6.806;2023-06-22T12:35:57;27.85;;;20.30;;
16579;SDS011;8402;51.466;6.806;2023-06-22T12:38:27;27.50;;;20.45;;
16579;SDS011;8402;51.466;6.806;2023-06-22T12:40:57;26.50;;;20.20;;
16579;SDS011;8402;51.466;6.806;2023-06-22T12:43:26;27.65;;;20.40;;
16579;SDS011;8402;51.466;6.806;2023-06-22T12:45:56;29.73;;;21.58;;
16579;SDS011;8402;51.466;6.806;2023-06-22T12:48:27;29.58;;;20.98;;
16579;SDS011;8402;51.466;6.806;2023-06-22T12:51:00;28.05;;;21.05;;
16579;SDS011;8402;51.466;6.806;2023-06-22T12:53:30;29.65;;;21.38;;
16579;SDS011;8402;51.466;6.806;2023-06-22T12:56:00;26.45;;;21.67;;
16579;SDS011;8402;51.466;6.806;2023-06-22T12:58:30;28.27;;;20.70;;
16579;SDS011;8402;51.466;6.806;2023-06-22T13:01:00;36.22;;;22.23;;
16579;SDS011;8402;51.466;6.806;2023-06-22T13:03:30;28.33;;;22.13;;
16579;SDS011;8402;51.466;6.806;2023-06-22T13:06:03;29.15;;;22.23;;
16579;SDS011;8402;51.466;6.806;2023-06-22T13:08:33;30.42;;;22.52;;
16579;SDS011;8402;51.466;6.806;2023-06-22T13:11:22;31.83;;;23.63;;
16579;SDS011;8402;51.466;6.806;2023-06-22T13:13:52;31.77;;;23.88;;
16579;SDS011;8402;51.466;6.806;2023-06-22T13:16:22;26.67;;;22.23;;
16579;SDS011;8402;51.466;6.806;2023-06-22T13:18:52;27.77;;;22.52;;
16579;SDS011;8402;51.466;6.806;2023-06-22T13:21:25;34.50;;;24.50;;
16579;SDS011;8402;51.466;6.806;2023-06-22T13:23:54;31.08;;;22.67;;
16579;SDS011;8402;51.466;6.806;2023-06-22T13:26:24;30.10;;;23.27;;
16579;SDS011;8402;51.466;6.806;2023-06-22T13:28:55;34.67;;;24.23;;
16579;SDS011;8402;51.466;6.806;2023-06-22T13:31:25;35.20;;;24.92;;
16579;SDS011;8402;51.466;6.806;2023-06-22T13:33:55;33.50;;;24.23;;
16579;SDS011;8402;51.466;6.806;2023-06-22T13:36:27;36.25;;;24.58;;
16579;SDS011;8402;51.466;6.806;2023-06-22T13:38:58;35.08;;;25.50;;
16579;SDS011;8402;51.466;6.806;2023-06-22T13:41:28;31.83;;;24.45;;
16579;SDS011;8402;51.466;6.806;2023-06-22T13:43:57;31.98;;;24.63;;
16579;SDS011;8402;51.466;6.806;2023-06-22T13:46:27;34.47;;;25.02;;
16579;SDS011;8402;51.466;6.806;2023-06-22T13:48:57;29.88;;;24.85;;
16579;SDS011;8402;51.466;6.806;2023-06-22T13:51:30;34.33;;;25.10;;
16579;SDS011;8402;51.466;6.806;2023-06-22T13:54:00;32.47;;;23.70;;
16579;SDS011;8402;51.466;6.806;2023-06-22T13:56:33;32.85;;;25.48;;
16579;SDS011;8402;51.466;6.806;2023-06-22T13:59:03;32.67;;;25.20;;
16579;SDS011;8402;51.466;6.806;2023-06-22T14:01:36;27.75;;;22.65;;
16579;SDS011;8402;51.466;6.806;2023-06-22T14:04:06;31.38;;;24.83;;
16579;SDS011;8402;51.466;6.806;2023-06-22T14:06:39;27.83;;;22.08;;
16579;SDS011;8402;51.466;6.806;2023-06-22T14:09:09;27.08;;;22.35;;
16579;SDS011;8402;51.466;6.806;2023-06-22T14:11:38;30.90;;;23.88;;
16579;SDS011;8402;51.466;6.806;2023-06-22T14:14:08;32.97;;;24.10;;
16579;SDS011;8402;51.466;6.806;2023-06-22T14:16:38;29.88;;;23.95;;
16579;SDS011;8402;51.466;6.806;2023-06-22T14:19:08;34.35;;;24.80;;
16579;SDS011;8402;51.466;6.806;2023-06-22T14:21:41;28.98;;;23.77;;
16579;SDS011;8402;51.466;6.806;2023-06-22T14:24:11;28.77;;;23.00;;
16579;SDS011;8402;51.466;6.806;2023-06-22T14:26:41;31.27;;;22.50;;
16579;SDS011;8402;51.466;6.806;2023-06-22T14:29:11;27.92;;;22.55;;
16579;SDS011;8402;51.466;6.806;2023-06-22T14:31:44;30.63;;;24.48;;
16579;SDS011;8402;51.466;6.806;2023-06-22T14:34:14;29.23;;;23.50;;
16579;SDS011;8402;51.466;6.806;2023-06-22T14:36:47;29.08;;;22.95;;
16579;SDS011;8402;51.466;6.806;2023-06-22T14:39:17;30.67;;;23.77;;
16579;SDS011;8402;51.466;6.806;2023-06-22T14:41:47;29.15;;;23.95;;
16579;SDS011;8402;51.466;6.806;2023-06-22T14:44:17;30.65;;;23.48;;
16579;SDS011;8402;51.466;6.806;2023-06-22T14:46:47;29.70;;;22.95;;
16579;SDS011;8402;51.466;6.806;2023-06-22T14:49:17;29.80;;;23.23;;
16579;SDS011;8402;51.466;6.806;2023-06-22T14:51:50;28.45;;;22.25;;
16579;SDS011;8402;51.466;6.806;2023-06-22T14:54:20;30.83;;;22.52;;
16579;SDS011;8402;51.466;6.806;2023-06-22T14:56:50;27.92;;;21.85;;
16579;SDS011;8402;51.466;6.806;2023-06-22T14:59:20;26.23;;;22.30;;
16579;SDS011;8402;51.466;6.806;2023-06-22T15:01:50;29.40;;;22.88;;
16579;SDS011;8402;51.466;6.806;2023-06-22T15:04:20;30.75;;;23.13;;